Time;durP1;ratioP1;P1;durP2;ratioP2;P2;SDS_P1;SDS_P2;PMS_P1;PMS_P2;Temp;Humidity;BMP_temperature;BMP_pressure;BME280_temperature;BME280_humidity;BME280_pressure;Samples;Min_cycle;Max_cycle;Signal;HPM_P1;HPM_P2
2021/09/09 00:02:05;;;;;;;19.60;10.77;;;16.80;99.90;;;;;;4966423;28;20034;-59
2021/09/09 00:04:31;;;;;;;13.65;9.70;;;16.70;99.90;;;;;;4966684;28;20030;-58
2021/09/09 00:06:56;;;;;;;15.40;9.50;;;16.70;99.90;;;;;;4965968;28;20058;-55
2021/09/09 00:09:22;;;;;;;13.43;9.50;;;16.70;99.90;;;;;;4966937;28;20034;-58
2021/09/09 00:11:48;;;;;;;14.48;9.65;;;16.70;99.90;;;;;;4967245;28;20027;-57
2021/09/09 00:14:14;;;;;;;13.82;9.60;;;16.60;99.90;;;;;;4967708;28;20038;-58
2021/09/09 00:16:40;;;;;;;16.35;9.35;;;16.60;99.90;;;;;;4947859;28;20065;-56
2021/09/09 00:19:06;;;;;;;12.60;9.35;;;16.70;99.90;;;;;;4961340;28;20035;-59
2021/09/09 00:21:32;;;;;;;12.75;10.00;;;16.60;99.90;;;;;;4965605;28;20368;-55
2021/09/09 00:23:57;;;;;;;20.02;9.65;;;16.60;99.90;;;;;;4964201;28;20038;-58
2021/09/09 00:26:23;;;;;;;12.00;8.85;;;16.70;99.90;;;;;;4968649;28;20031;-58
2021/09/09 00:28:49;;;;;;;13.40;9.35;;;16.70;99.90;;;;;;4961328;28;20035;-60
2021/09/09 00:31:15;;;;;;;13.07;9.65;;;16.70;99.90;;;;;;4961265;28;20025;-59
2021/09/09 00:33:43;;;;;;;18.13;10.45;;;16.80;99.90;;;;;;4966091;28;20034;-58
2021/09/09 00:36:09;;;;;;;13.00;9.77;;;16.80;99.90;;;;;;4965550;28;20047;-57
2021/09/09 00:38:34;;;;;;;13.93;9.15;;;16.80;99.90;;;;;;4964564;28;20027;-56
2021/09/09 00:41:00;;;;;;;11.00;8.52;;;16.90;99.90;;;;;;4964254;28;20031;-60
2021/09/09 00:43:25;;;;;;;12.95;9.30;;;16.90;99.90;;;;;;4968327;28;20461;-58
2021/09/09 00:45:55;;;;;;;14.85;9.75;;;16.90;99.90;;;;;;4954450;28;20046;-58
2021/09/09 00:48:22;;;;;;;13.48;9.30;;;16.90;99.90;;;;;;4971401;28;20054;-58
2021/09/09 00:50:49;;;;;;;13.30;10.02;;;16.90;99.90;;;;;;4955418;28;20039;-60
2021/09/09 00:53:15;;;;;;;13.13;10.00;;;16.80;99.90;;;;;;4971181;28;20379;-60
2021/09/09 00:55:40;;;;;;;13.15;9.48;;;16.80;99.90;;;;;;4970414;28;20093;-58
2021/09/09 00:58:09;;;;;;;12.18;9.55;;;16.80;99.90;;;;;;4966496;28;20023;-58
2021/09/09 01:00:38;;;;;;;12.30;9.25;;;16.80;99.90;;;;;;4971329;28;20034;-56
2021/09/09 01:03:06;;;;;;;13.32;9.23;;;16.80;99.90;;;;;;4971963;28;20030;-58
2021/09/09 01:05:32;;;;;;;12.73;9.63;;;16.80;99.90;;;;;;4970618;28;20039;-58
2021/09/09 01:07:58;;;;;;;12.43;9.25;;;16.60;99.90;;;;;;4971108;28;20061;-59
2021/09/09 01:10:24;;;;;;;15.80;9.38;;;16.60;99.90;;;;;;4977616;28;20054;-59
2021/09/09 01:12:49;;;;;;;13.00;9.75;;;16.50;99.90;;;;;;4970557;28;20030;-56
2021/09/09 01:15:15;;;;;;;14.60;9.57;;;16.50;99.90;;;;;;4973109;28;20041;-59
2021/09/09 01:17:41;;;;;;;15.35;9.90;;;16.50;99.90;;;;;;4966876;28;20422;-59
2021/09/09 01:20:07;;;;;;;13.30;9.05;;;16.50;99.90;;;;;;4970482;28;20026;-58
2021/09/09 01:22:32;;;;;;;14.73;9.60;;;16.50;99.90;;;;;;4972857;28;20442;-60
2021/09/09 01:24:58;;;;;;;12.68;9.80;;;16.50;99.90;;;;;;4972609;28;21237;-60
2021/09/09 01:27:24;;;;;;;18.77;9.23;;;16.40;99.90;;;;;;4970844;28;20042;-60
2021/09/09 01:29:49;;;;;;;13.73;9.27;;;16.40;99.90;;;;;;4973357;28;20101;-57
2021/09/09 01:32:16;;;;;;;15.68;10.63;;;16.30;99.90;;;;;;4971991;28;20109;-58
2021/09/09 01:34:42;;;;;;;15.02;9.73;;;16.30;99.90;;;;;;4969650;28;20019;-58
2021/09/09 01:37:09;;;;;;;14.50;9.55;;;16.30;99.90;;;;;;4969620;28;20042;-58
2021/09/09 01:39:35;;;;;;;14.63;10.60;;;16.30;99.90;;;;;;4972342;28;20501;-59
2021/09/09 01:42:01;;;;;;;14.05;9.70;;;16.30;99.90;;;;;;4973015;28;20030;-56
2021/09/09 01:44:30;;;;;;;13.45;10.45;;;16.30;99.90;;;;;;4959818;28;20035;-58
2021/09/09 01:46:57;;;;;;;14.50;10.35;;;16.20;99.90;;;;;;4972525;28;20034;-57
2021/09/09 01:49:23;;;;;;;12.45;10.02;;;16.20;99.90;;;;;;4977370;28;20023;-57
2021/09/09 01:51:48;;;;;;;14.52;9.38;;;16.20;99.90;;;;;;4970494;28;20509;-58
2021/09/09 01:54:14;;;;;;;14.82;10.20;;;16.10;99.90;;;;;;4970981;28;20158;-59
2021/09/09 01:56:40;;;;;;;16.65;9.85;;;16.20;99.90;;;;;;4978820;28;20065;-59
2021/09/09 01:59:05;;;;;;;13.52;9.18;;;16.10;99.90;;;;;;4969074;28;20031;-59
2021/09/09 02:01:31;;;;;;;15.77;9.75;;;16.10;99.90;;;;;;4966219;28;20109;-61
2021/09/09 02:03:58;;;;;;;12.10;9.52;;;16.10;99.90;;;;;;4987243;28;20023;-58
2021/09/09 02:06:23;;;;;;;15.63;9.65;;;16.10;99.90;;;;;;4972391;28;20027;-57
2021/09/09 02:08:49;;;;;;;12.90;9.88;;;16.10;99.90;;;;;;4964390;28;20038;-59
2021/09/09 02:11:15;;;;;;;16.17;9.77;;;16.10;99.90;;;;;;4971627;28;20042;-59
2021/09/09 02:13:40;;;;;;;20.65;10.77;;;16.10;99.90;;;;;;4972184;28;20035;-57
2021/09/09 02:16:07;;;;;;;13.95;10.20;;;16.10;99.90;;;;;;4980841;28;20477;-59
2021/09/09 02:18:33;;;;;;;16.92;10.45;;;16.10;99.90;;;;;;4980511;28;20030;-59
2021/09/09 02:20:59;;;;;;;15.02;10.18;;;16.10;99.90;;;;;;4970321;28;20035;-58
2021/09/09 02:23:25;;;;;;;16.80;10.27;;;16.20;99.90;;;;;;4973854;28;20031;-59
2021/09/09 02:25:50;;;;;;;15.18;9.85;;;16.20;99.90;;;;;;4969469;28;20054;-59
2021/09/09 02:28:16;;;;;;;13.45;9.98;;;16.20;99.90;;;;;;4974746;28;20039;-60
2021/09/09 02:30:42;;;;;;;16.40;9.32;;;16.10;99.90;;;;;;4979132;28;20050;-56
2021/09/09 02:33:08;;;;;;;12.32;9.02;;;16.10;99.90;;;;;;4971601;28;20429;-57
2021/09/09 02:35:33;;;;;;;20.63;9.60;;;16.10;99.90;;;;;;4954733;28;20029;-60
2021/09/09 02:37:59;;;;;;;12.82;9.55;;;16.10;99.90;;;;;;4966488;28;20046;-57
2021/09/09 02:40:25;;;;;;;15.65;9.75;;;16.10;99.90;;;;;;4968064;28;20277;-59
2021/09/09 02:42:51;;;;;;;19.25;10.40;;;16.10;99.90;;;;;;4964347;28;20031;-60
2021/09/09 02:45:16;;;;;;;13.77;9.07;;;16.00;99.90;;;;;;4954745;28;20548;-59
2021/09/09 02:47:42;;;;;;;14.27;10.02;;;16.00;99.90;;;;;;4963229;28;20262;-60
2021/09/09 02:50:08;;;;;;;13.93;9.02;;;16.00;99.90;;;;;;4966896;28;20027;-59
2021/09/09 02:52:34;;;;;;;14.10;10.13;;;16.00;99.90;;;;;;4968632;28;20146;-60
2021/09/09 02:55:00;;;;;;;16.90;10.00;;;16.00;99.90;;;;;;4966075;28;20105;-60
2021/09/09 02:57:26;;;;;;;13.95;10.40;;;16.00;99.90;;;;;;4966976;28;20082;-61
2021/09/09 02:59:52;;;;;;;16.20;9.18;;;16.00;99.90;;;;;;4966699;28;20042;-58
2021/09/09 03:02:18;;;;;;;12.15;9.73;;;16.00;99.90;;;;;;4967927;28;20050;-54
2021/09/09 03:04:43;;;;;;;14.52;9.82;;;16.00;99.90;;;;;;4971098;28;20035;-58
2021/09/09 03:07:09;;;;;;;14.75;9.65;;;16.00;99.90;;;;;;4964059;28;20407;-57
2021/09/09 03:09:34;;;;;;;15.70;10.10;;;15.90;99.90;;;;;;4963806;28;20031;-59
2021/09/09 03:12:00;;;;;;;14.73;9.80;;;16.00;99.90;;;;;;4965636;28;20029;-58
2021/09/09 03:14:25;;;;;;;14.82;9.45;;;16.00;99.90;;;;;;4966123;28;20080;-58
2021/09/09 03:16:51;;;;;;;14.65;9.20;;;16.00;99.90;;;;;;4982390;28;20023;-57
2021/09/09 03:19:17;;;;;;;11.93;9.15;;;16.10;99.90;;;;;;4970067;28;20033;-59
2021/09/09 03:21:42;;;;;;;14.07;9.60;;;16.10;99.90;;;;;;4967110;28;20039;-56
2021/09/09 03:24:08;;;;;;;14.07;8.88;;;16.10;99.90;;;;;;4966609;28;20106;-58
2021/09/09 03:26:34;;;;;;;13.13;9.45;;;16.00;99.90;;;;;;4969635;28;20035;-58
2021/09/09 03:28:59;;;;;;;13.43;10.10;;;16.00;99.90;;;;;;4966410;28;20078;-59
2021/09/09 03:31:25;;;;;;;13.13;9.13;;;15.90;99.90;;;;;;4957873;28;20055;-58
2021/09/09 03:33:50;;;;;;;13.82;9.98;;;15.90;99.90;;;;;;4968106;28;20062;-53
2021/09/09 03:36:16;;;;;;;13.15;9.07;;;15.90;99.90;;;;;;4964446;28;20039;-59
2021/09/09 03:38:41;;;;;;;12.93;8.95;;;15.90;99.90;;;;;;4968063;28;20031;-59
2021/09/09 03:41:08;;;;;;;13.95;9.63;;;15.90;99.90;;;;;;4966186;28;20053;-60
2021/09/09 03:43:34;;;;;;;16.17;10.18;;;15.90;99.90;;;;;;4963874;28;20482;-58
2021/09/09 03:46:00;;;;;;;14.98;9.30;;;15.90;99.90;;;;;;4948594;28;20046;-58
2021/09/09 03:48:25;;;;;;;15.82;10.38;;;15.90;99.90;;;;;;4967710;28;20045;-55
2021/09/09 03:50:51;;;;;;;13.95;9.23;;;15.90;99.90;;;;;;4967615;28;20038;-54
2021/09/09 03:53:16;;;;;;;13.07;9.20;;;15.90;99.90;;;;;;4969202;28;20030;-59
2021/09/09 03:55:42;;;;;;;18.88;9.75;;;15.80;99.90;;;;;;4965797;28;20050;-56
2021/09/09 03:58:08;;;;;;;15.85;11.13;;;15.70;99.90;;;;;;4963321;28;20033;-59
2021/09/09 04:00:33;;;;;;;14.90;9.73;;;15.60;99.90;;;;;;4966191;28;20046;-59
2021/09/09 04:02:59;;;;;;;14.95;10.18;;;15.50;99.90;;;;;;4965450;28;20039;-58
2021/09/09 04:05:25;;;;;;;14.30;9.55;;;15.50;99.90;;;;;;4964962;28;20027;-58
2021/09/09 04:07:51;;;;;;;18.80;10.05;;;15.50;99.90;;;;;;4967319;28;20032;-56
2021/09/09 04:10:16;;;;;;;14.02;10.27;;;15.40;99.90;;;;;;4961015;28;20027;-60
2021/09/09 04:12:42;;;;;;;12.18;9.20;;;15.40;99.90;;;;;;4966349;28;20082;-58
2021/09/09 04:15:08;;;;;;;15.30;9.65;;;15.40;99.90;;;;;;4965581;28;20022;-58
2021/09/09 04:17:35;;;;;;;14.57;9.63;;;15.40;99.90;;;;;;4963520;28;20023;-59
2021/09/09 04:20:00;;;;;;;20.50;10.30;;;15.40;99.90;;;;;;4972339;28;20034;-58
2021/09/09 04:22:26;;;;;;;14.25;10.05;;;15.40;99.90;;;;;;4971708;28;20043;-58
2021/09/09 04:24:52;;;;;;;15.98;9.95;;;15.40;99.90;;;;;;4971087;28;20022;-50
2021/09/09 04:27:21;;;;;;;21.73;10.68;;;15.50;99.90;;;;;;4971616;28;20035;-57
2021/09/09 04:29:47;;;;;;;17.13;10.48;;;15.60;99.90;;;;;;4967000;28;20078;-58
2021/09/09 04:32:13;;;;;;;12.10;9.90;;;15.60;99.90;;;;;;4971034;28;20019;-56
2021/09/09 04:34:39;;;;;;;15.18;9.88;;;15.60;99.90;;;;;;4969011;28;20039;-55
2021/09/09 04:37:04;;;;;;;21.58;10.40;;;15.60;99.90;;;;;;4966590;28;20038;-56
2021/09/09 04:39:30;;;;;;;14.88;9.85;;;15.70;99.90;;;;;;4972380;28;20034;-57
2021/09/09 04:41:58;;;;;;;16.38;10.90;;;15.60;99.90;;;;;;4969580;28;20034;-52
2021/09/09 04:44:23;;;;;;;15.07;10.02;;;15.60;99.90;;;;;;4969838;28;20043;-57
2021/09/09 04:46:49;;;;;;;13.30;9.75;;;15.60;99.90;;;;;;4948495;28;20051;-59
2021/09/09 04:49:14;;;;;;;12.32;9.73;;;15.60;99.90;;;;;;4968525;28;20041;-53
2021/09/09 04:51:40;;;;;;;15.50;9.38;;;15.60;99.90;;;;;;4968323;28;20038;-59
2021/09/09 04:54:05;;;;;;;16.67;9.43;;;15.60;99.90;;;;;;4972759;28;20108;-57
2021/09/09 04:56:31;;;;;;;14.82;9.63;;;15.60;99.90;;;;;;4967028;28;20035;-59
2021/09/09 04:58:57;;;;;;;13.85;9.85;;;15.60;99.90;;;;;;4969596;28;20041;-60
2021/09/09 05:01:24;;;;;;;13.85;10.00;;;15.70;99.90;;;;;;4967855;28;20023;-59
2021/09/09 05:03:49;;;;;;;14.75;10.23;;;15.70;99.90;;;;;;4961639;28;20029;-59
2021/09/09 05:06:15;;;;;;;15.60;9.73;;;15.70;99.90;;;;;;4963064;28;20031;-60
2021/09/09 05:08:41;;;;;;;15.80;8.98;;;15.80;99.90;;;;;;4965010;28;20054;-57
2021/09/09 05:11:11;;;;;;;14.65;9.00;;;15.80;99.90;;;;;;4971786;28;20038;-58
2021/09/09 05:13:37;;;;;;;14.60;9.27;;;15.90;99.90;;;;;;4963130;28;20085;-59
2021/09/09 05:16:04;;;;;;;17.48;10.02;;;16.00;99.90;;;;;;4969468;28;20026;-60
2021/09/09 05:18:30;;;;;;;14.00;9.15;;;16.10;99.90;;;;;;4966556;28;20047;-58
2021/09/09 05:20:55;;;;;;;15.63;9.10;;;16.20;99.90;;;;;;4967411;28;20485;-55
2021/09/09 05:23:21;;;;;;;14.85;10.25;;;16.30;99.90;;;;;;4970870;28;20473;-56
2021/09/09 05:25:46;;;;;;;11.88;8.93;;;16.40;99.90;;;;;;4962407;28;20043;-59
2021/09/09 05:28:12;;;;;;;14.38;8.88;;;16.50;99.90;;;;;;4958979;28;20098;-57
2021/09/09 05:30:37;;;;;;;12.30;9.18;;;16.60;99.90;;;;;;4966610;28;20042;-59
2021/09/09 05:33:03;;;;;;;13.00;8.38;;;16.70;99.90;;;;;;4970220;28;20024;-58
2021/09/09 05:35:29;;;;;;;11.00;8.68;;;16.80;99.90;;;;;;4968102;28;20393;-58
2021/09/09 05:37:54;;;;;;;14.45;8.65;;;16.90;99.90;;;;;;4968021;28;20085;-59
2021/09/09 05:40:20;;;;;;;14.10;8.60;;;17.00;99.90;;;;;;4965726;28;20038;-60
2021/09/09 05:42:46;;;;;;;12.65;9.52;;;17.00;99.90;;;;;;4966114;28;20473;-52
2021/09/09 05:45:11;;;;;;;11.93;8.68;;;17.00;99.90;;;;;;4950040;28;20057;-58
2021/09/09 05:47:37;;;;;;;12.50;9.43;;;17.00;99.90;;;;;;4972419;28;20034;-60
2021/09/09 05:50:03;;;;;;;14.50;9.23;;;17.00;99.90;;;;;;4969087;28;20039;-59
2021/09/09 05:52:28;;;;;;;12.50;9.25;;;17.00;99.90;;;;;;4967258;28;20034;-58
2021/09/09 05:54:54;;;;;;;17.73;9.07;;;17.10;99.90;;;;;;4961329;28;20031;-56
2021/09/09 05:57:20;;;;;;;11.32;8.63;;;17.20;99.90;;;;;;4963171;28;20288;-60
2021/09/09 05:59:45;;;;;;;13.38;9.20;;;17.50;99.90;;;;;;4965745;28;20494;-58
2021/09/09 06:02:16;;;;;;;12.07;9.57;;;17.60;99.90;;;;;;4964791;28;20156;-55
2021/09/09 06:04:42;;;;;;;15.10;9.20;;;17.90;99.90;;;;;;4957762;28;20045;-58
2021/09/09 06:07:08;;;;;;;11.60;8.90;;;18.30;99.90;;;;;;4970564;28;20030;-54
2021/09/09 06:09:34;;;;;;;13.45;8.45;;;18.80;99.90;;;;;;4971408;28;20026;-58
2021/09/09 06:11:59;;;;;;;14.00;8.57;;;19.00;99.90;;;;;;4967624;28;20023;-59
2021/09/09 06:14:25;;;;;;;12.27;8.45;;;19.30;99.90;;;;;;4966243;28;20027;-60
2021/09/09 06:16:50;;;;;;;12.35;8.15;;;19.60;99.90;;;;;;4966387;28;20443;-62
2021/09/09 06:19:16;;;;;;;13.13;8.27;;;19.80;99.90;;;;;;4965339;28;20027;-61
2021/09/09 06:21:42;;;;;;;12.85;8.10;;;19.90;99.20;;;;;;4967785;28;20121;-59
2021/09/09 06:24:07;;;;;;;9.77;8.10;;;19.80;99.50;;;;;;4970909;28;20039;-56
2021/09/09 06:26:34;;;;;;;14.65;8.30;;;19.60;99.70;;;;;;4964658;28;20027;-58
2021/09/09 06:29:00;;;;;;;12.63;7.82;;;19.60;99.00;;;;;;4967193;28;20023;-59
2021/09/09 06:31:26;;;;;;;16.58;8.73;;;19.60;99.00;;;;;;4969298;28;20541;-60
2021/09/09 06:33:51;;;;;;;13.10;7.47;;;19.70;98.70;;;;;;4967266;28;20031;-58
2021/09/09 06:36:17;;;;;;;13.60;8.15;;;19.70;98.80;;;;;;4968456;28;20085;-59
2021/09/09 06:38:43;;;;;;;11.55;7.20;;;19.80;98.80;;;;;;4965767;28;20033;-60
2021/09/09 06:41:08;;;;;;;12.32;8.45;;;19.90;98.90;;;;;;4962168;28;20043;-60
2021/09/09 06:43:34;;;;;;;14.40;8.00;;;20.00;98.40;;;;;;4961836;28;20110;-60
2021/09/09 06:45:59;;;;;;;10.25;7.18;;;19.90;98.40;;;;;;4949425;28;20071;-58
2021/09/09 06:48:25;;;;;;;14.70;7.03;;;20.00;99.00;;;;;;4964453;28;20034;-60
2021/09/09 06:50:51;;;;;;;10.88;7.90;;;20.30;99.30;;;;;;4969558;28;20107;-56
2021/09/09 06:53:16;;;;;;;16.60;7.20;;;20.80;98.90;;;;;;4970006;28;20041;-58
2021/09/09 06:55:42;;;;;;;14.23;7.30;;;21.60;97.20;;;;;;4962835;28;20035;-57
2021/09/09 06:58:07;;;;;;;10.18;7.68;;;22.80;95.40;;;;;;4968786;28;20251;-59
2021/09/09 07:00:33;;;;;;;12.68;7.57;;;23.60;93.00;;;;;;4969702;28;20041;-58
2021/09/09 07:02:58;;;;;;;13.70;7.80;;;24.60;92.20;;;;;;4956900;28;20127;-60
2021/09/09 07:05:24;;;;;;;8.88;7.00;;;25.10;91.10;;;;;;4970893;28;20403;-61
2021/09/09 07:07:50;;;;;;;17.90;7.45;;;25.80;90.60;;;;;;4960848;28;20046;-61
2021/09/09 07:10:18;;;;;;;12.98;7.28;;;26.80;87.70;;;;;;4967377;28;20043;-61
2021/09/09 07:12:43;;;;;;;12.15;6.97;;;27.10;86.30;;;;;;4965929;28;20019;-58
2021/09/09 07:15:09;;;;;;;9.02;6.25;;;27.80;84.20;;;;;;4960409;28;20034;-60
2021/09/09 07:17:36;;;;;;;11.77;7.00;;;27.70;82.60;;;;;;4967272;28;20030;-56
2021/09/09 07:20:03;;;;;;;11.82;5.93;;;28.40;82.40;;;;;;4958150;28;20171;-61
2021/09/09 07:22:29;;;;;;;10.35;6.72;;;28.80;79.60;;;;;;4965974;28;20538;-59
2021/09/09 07:24:54;;;;;;;9.43;7.20;;;29.20;77.90;;;;;;4970146;28;20038;-60
2021/09/09 07:27:21;;;;;;;7.78;6.30;;;28.90;77.40;;;;;;4961630;28;20031;-60
2021/09/09 07:29:46;;;;;;;10.00;6.85;;;29.40;77.60;;;;;;4963791;28;20039;-61
2021/09/09 07:32:12;;;;;;;9.43;6.60;;;29.00;78.00;;;;;;4965840;28;20189;-60
2021/09/09 07:34:38;;;;;;;14.25;6.45;;;29.10;78.20;;;;;;4957971;28;20094;-60
2021/09/09 07:37:03;;;;;;;9.93;7.22;;;29.80;75.90;;;;;;4963728;28;20035;-58
2021/09/09 07:39:29;;;;;;;8.15;5.80;;;30.50;74.40;;;;;;4969740;28;20371;-59
2021/09/09 07:41:55;;;;;;;7.38;6.63;;;30.50;75.00;;;;;;4969407;28;20034;-61
2021/09/09 07:44:21;;;;;;;9.40;6.80;;;30.40;74.10;;;;;;4961841;28;20086;-60
2021/09/09 07:46:47;;;;;;;8.90;6.63;;;29.60;75.20;;;;;;4943696;28;20051;-60
2021/09/09 07:49:15;;;;;;;8.38;6.30;;;29.60;75.50;;;;;;4967855;28;20137;-55
2021/09/09 07:51:45;;;;;;;8.85;5.97;;;29.70;75.50;;;;;;4962799;28;20054;-61
2021/09/09 07:54:11;;;;;;;9.18;7.07;;;29.70;73.80;;;;;;4972024;28;20018;-58
2021/09/09 07:56:37;;;;;;;9.15;6.93;;;29.50;76.00;;;;;;4972237;28;20487;-59
2021/09/09 07:59:03;;;;;;;12.20;6.90;;;30.00;74.70;;;;;;4972983;28;20031;-58
2021/09/09 08:01:29;;;;;;;9.13;6.38;;;30.10;73.80;;;;;;4968339;28;20102;-61
2021/09/09 08:03:55;;;;;;;6.72;5.78;;;30.60;74.10;;;;;;4973275;28;20565;-60
2021/09/09 08:06:20;;;;;;;12.35;7.20;;;30.40;74.10;;;;;;4969782;28;20023;-60
2021/09/09 08:08:46;;;;;;;13.40;6.78;;;30.10;75.10;;;;;;4965753;28;20027;-60
2021/09/09 08:11:11;;;;;;;11.05;6.85;;;30.00;74.10;;;;;;4970096;28;20061;-61
2021/09/09 08:13:37;;;;;;;9.20;6.38;;;30.10;75.10;;;;;;4962753;28;20023;-60
2021/09/09 08:16:04;;;;;;;8.85;6.57;;;30.60;74.00;;;;;;4973022;28;20035;-66
2021/09/09 08:18:29;;;;;;;8.93;6.28;;;30.70;72.30;;;;;;4971658;28;20019;-61
2021/09/09 08:20:55;;;;;;;9.57;6.15;;;30.90;72.20;;;;;;4969464;28;20391;-60
2021/09/09 08:23:22;;;;;;;10.57;6.57;;;30.40;73.20;;;;;;4973928;28;20023;-60
2021/09/09 08:25:47;;;;;;;6.82;5.50;;;30.70;72.40;;;;;;4967199;28;20062;-60
2021/09/09 08:28:16;;;;;;;9.73;6.85;;;31.00;73.00;;;;;;4968192;28;20521;-60
2021/09/09 08:30:42;;;;;;;11.80;6.70;;;30.90;71.80;;;;;;4967637;28;20487;-60
2021/09/09 08:33:07;;;;;;;9.35;6.30;;;30.90;72.80;;;;;;4967036;28;20118;-60
2021/09/09 08:35:33;;;;;;;9.13;6.68;;;30.90;72.10;;;;;;4968142;28;20055;-62
2021/09/09 08:37:58;;;;;;;13.82;7.13;;;30.50;72.90;;;;;;4964396;28;20039;-61
2021/09/09 08:40:24;;;;;;;9.70;6.03;;;30.20;73.30;;;;;;4971767;28;20027;-61
2021/09/09 08:42:51;;;;;;;16.58;7.32;;;30.80;74.00;;;;;;4967512;28;20449;-60
2021/09/09 08:45:16;;;;;;;7.57;5.60;;;30.70;73.10;;;;;;4955094;28;20536;-60
2021/09/09 08:47:46;;;;;;;10.15;6.30;;;30.70;73.20;;;;;;4966883;28;20054;-56
2021/09/09 08:50:11;;;;;;;9.65;6.40;;;30.70;72.90;;;;;;4970342;28;20030;-59
2021/09/09 08:52:38;;;;;;;9.38;6.30;;;30.90;72.40;;;;;;4968237;28;20073;-60
2021/09/09 08:55:04;;;;;;;8.45;6.55;;;31.10;72.80;;;;;;4964839;28;20093;-61
2021/09/09 08:57:32;;;;;;;6.60;5.72;;;30.70;72.00;;;;;;4969860;28;20482;-59
2021/09/09 09:00:00;;;;;;;10.38;6.32;;;31.10;72.80;;;;;;4960592;28;20084;-59
2021/09/09 09:02:26;;;;;;;9.50;6.43;;;31.20;71.30;;;;;;4965505;28;20035;-59
2021/09/09 09:05:04;;;;;;;9.80;6.13;;;31.20;72.20;;;;;;4967926;28;20406;-57
2021/09/09 09:07:38;;;;;;;7.57;6.10;;;31.10;72.30;;;;;;4962193;28;20023;-61
2021/09/09 09:10:06;;;;;;;9.85;6.43;;;30.70;73.80;;;;;;4964487;28;20062;-54
2021/09/09 09:12:38;;;;;;;11.13;5.75;;;30.60;73.80;;;;;;4965126;28;20027;-59
2021/09/09 09:15:14;;;;;;;8.60;6.53;;;30.90;73.70;;;;;;4967988;28;20039;-61
2021/09/09 09:17:52;;;;;;;13.80;6.25;;;31.00;73.60;;;;;;4970435;28;20085;-58
2021/09/09 09:20:18;;;;;;;9.05;6.03;;;31.20;72.20;;;;;;4966309;28;20648;-60
2021/09/09 09:22:44;;;;;;;7.32;5.95;;;31.00;73.20;;;;;;4966459;28;20027;-52
2021/09/09 09:25:10;;;;;;;10.00;6.57;;;31.40;71.90;;;;;;4967928;28;20035;-61
2021/09/09 09:27:47;;;;;;;7.60;6.25;;;31.60;72.00;;;;;;4968651;28;20041;-60
2021/09/09 09:30:14;;;;;;;8.82;6.35;;;30.90;73.30;;;;;;4966898;28;20027;-61
2021/09/09 09:32:48;;;;;;;8.63;5.95;;;30.90;71.00;;;;;;4970349;28;20109;-58
2021/09/09 09:35:16;;;;;;;7.30;5.88;;;31.00;73.00;;;;;;4967123;28;20026;-61
2021/09/09 09:37:56;;;;;;;11.18;6.60;;;31.50;70.60;;;;;;4968857;28;20109;-60
2021/09/09 09:40:33;;;;;;;9.50;6.82;;;31.40;71.50;;;;;;4972934;28;20035;-61
2021/09/09 09:43:05;;;;;;;9.88;7.55;;;31.10;70.70;;;;;;4967754;28;20042;-59
2021/09/09 09:45:31;;;;;;;11.95;6.10;;;31.20;71.40;;;;;;4947313;28;20027;-60
2021/09/09 09:47:57;;;;;;;9.60;5.70;;;31.00;71.20;;;;;;4967698;28;20517;-61
2021/09/09 09:50:23;;;;;;;9.88;5.78;;;30.70;72.50;;;;;;4964136;28;20405;-59
2021/09/09 09:52:50;;;;;;;11.32;6.95;;;31.10;72.30;;;;;;4964104;28;20030;-61
2021/09/09 09:55:16;;;;;;;11.70;6.93;;;30.30;72.80;;;;;;4966131;28;20092;-57
2021/09/09 09:57:53;;;;;;;13.75;6.80;;;29.60;76.00;;;;;;4968372;28;20027;-61
2021/09/09 10:00:19;;;;;;;11.60;7.63;;;29.20;75.80;;;;;;4963099;28;20054;-60
2021/09/09 10:02:45;;;;;;;13.48;6.40;;;29.10;75.70;;;;;;4964632;28;20490;-59
2021/09/09 10:05:12;;;;;;;13.02;6.50;;;29.40;76.00;;;;;;4969982;28;20033;-59
2021/09/09 10:07:38;;;;;;;8.93;6.82;;;29.40;76.20;;;;;;4963055;28;20466;-60
2021/09/09 10:10:04;;;;;;;9.93;6.45;;;29.30;76.20;;;;;;4962725;28;20027;-59
2021/09/09 10:12:30;;;;;;;8.98;5.97;;;29.30;76.70;;;;;;4961418;28;20031;-50
2021/09/09 10:14:59;;;;;;;13.27;6.28;;;29.20;76.30;;;;;;4960437;28;20499;-57
2021/09/09 10:17:28;;;;;;;9.43;6.50;;;29.30;76.80;;;;;;4964911;28;20595;-57
2021/09/09 10:19:54;;;;;;;8.15;6.45;;;29.00;76.60;;;;;;4962877;28;20042;-59
2021/09/09 10:22:21;;;;;;;14.82;6.78;;;29.00;78.50;;;;;;4964522;28;20031;-57
2021/09/09 10:25:07;;;;;;;13.18;7.95;;;29.10;76.70;;;;;;4962169;28;20528;-58
2021/09/09 10:27:41;;;;;;;9.75;6.95;;;28.80;76.10;;;;;;4962138;28;20155;-56
2021/09/09 10:30:19;;;;;;;10.25;6.63;;;28.40;78.20;;;;;;4970851;28;20035;-56
2021/09/09 10:32:51;;;;;;;14.85;6.80;;;27.90;81.00;;;;;;4970319;28;20050;-60
2021/09/09 10:35:17;;;;;;;10.77;7.03;;;28.10;79.60;;;;;;4961500;28;20019;-60
2021/09/09 10:37:47;;;;;;;17.27;8.43;;;28.20;80.60;;;;;;4962309;28;20057;-56
2021/09/09 10:40:31;;;;;;;16.80;7.95;;;28.30;80.60;;;;;;4964952;28;20402;-57
2021/09/09 10:43:03;;;;;;;13.68;6.90;;;28.20;80.50;;;;;;4965934;28;20054;-58
2021/09/09 10:45:34;;;;;;;8.67;7.10;;;28.10;81.30;;;;;;4962778;28;20118;-56
2021/09/09 10:48:01;;;;;;;9.95;7.18;;;28.50;81.50;;;;;;4961582;28;20039;-62
2021/09/09 10:50:26;;;;;;;12.55;7.32;;;28.80;80.80;;;;;;4959208;28;20082;-61
2021/09/09 10:53:08;;;;;;;12.25;6.47;;;28.40;80.40;;;;;;4978053;28;20027;-57
2021/09/09 10:55:36;;;;;;;10.27;6.63;;;28.40;81.60;;;;;;4964104;28;20027;-60
2021/09/09 10:58:19;;;;;;;12.63;6.35;;;28.70;82.10;;;;;;4966570;28;20545;-61
2021/09/09 11:00:55;;;;;;;10.90;6.00;;;28.60;79.60;;;;;;4965994;28;20093;-57
2021/09/09 11:03:37;;;;;;;14.55;7.40;;;28.60;82.00;;;;;;4961141;28;20106;-58
2021/09/09 11:06:05;;;;;;;14.30;7.43;;;28.40;81.50;;;;;;4969759;28;20027;-58
2021/09/09 11:08:30;;;;;;;8.55;6.15;;;28.50;83.10;;;;;;4962326;28;20490;-60
2021/09/09 11:10:56;;;;;;;12.90;6.95;;;29.00;79.90;;;;;;4969035;28;20053;-60
2021/09/09 11:13:30;;;;;;;8.57;6.85;;;29.30;79.90;;;;;;4959344;28;20498;-60
2021/09/09 11:15:56;;;;;;;14.10;6.80;;;29.30;78.90;;;;;;4967880;28;20022;-59
2021/09/09 11:18:35;;;;;;;10.85;6.32;;;29.50;79.70;;;;;;4957480;28;20077;-58
2021/09/09 11:21:07;;;;;;;8.80;6.45;;;29.60;78.30;;;;;;4970618;28;20027;-61
2021/09/09 11:23:35;;;;;;;13.77;7.25;;;29.50;79.20;;;;;;4970007;28;20027;-59
2021/09/09 11:26:16;;;;;;;12.13;6.97;;;28.80;79.70;;;;;;4965822;28;20037;-58
2021/09/09 11:28:43;;;;;;;12.27;6.55;;;28.60;81.10;;;;;;4968028;28;20401;-59
2021/09/09 11:31:15;;;;;;;14.07;7.05;;;28.50;80.50;;;;;;4966260;28;20535;-59
2021/09/09 11:33:47;;;;;;;9.20;5.88;;;28.40;81.90;;;;;;4968245;28;20082;-59
2021/09/09 11:36:12;;;;;;;12.73;7.20;;;28.40;82.80;;;;;;4965951;28;20283;-59
2021/09/09 11:38:38;;;;;;;12.15;6.90;;;28.40;82.40;;;;;;4968018;28;20022;-59
2021/09/09 11:41:11;;;;;;;16.15;7.65;;;28.20;84.50;;;;;;4964245;28;20131;-60
2021/09/09 11:43:39;;;;;;;14.55;6.95;;;27.90;82.00;;;;;;4962804;28;20138;-61
2021/09/09 11:46:04;;;;;;;10.45;5.72;;;28.00;83.30;;;;;;4954716;28;20047;-58
2021/09/09 11:48:30;;;;;;;11.70;6.93;;;28.20;83.80;;;;;;4968995;28;20446;-57
2021/09/09 11:50:56;;;;;;;9.25;7.03;;;28.30;83.10;;;;;;4966598;28;20038;-60
2021/09/09 11:53:26;;;;;;;9.70;6.25;;;28.20;82.70;;;;;;4969319;28;20027;-59
2021/09/09 11:55:53;;;;;;;15.35;7.15;;;28.10;83.90;;;;;;4959620;28;20055;-60
2021/09/09 11:58:38;;;;;;;10.05;7.00;;;27.90;83.20;;;;;;4959720;28;20031;-53
2021/09/09 12:01:06;;;;;;;13.88;7.32;;;27.80;83.60;;;;;;4967358;28;20106;-60
2021/09/09 12:03:35;;;;;;;14.30;6.90;;;27.70;84.00;;;;;;4960749;28;20445;-56
2021/09/09 12:06:02;;;;;;;11.07;6.78;;;27.80;83.60;;;;;;4961998;28;20038;-61
2021/09/09 12:08:28;;;;;;;10.90;6.78;;;28.00;84.20;;;;;;4961523;28;20093;-58
2021/09/09 12:11:20;;;;;;;8.93;6.05;;;28.10;83.00;;;;;;4967482;28;20027;-60
2021/09/09 12:13:46;;;;;;;9.23;6.10;;;27.80;84.40;;;;;;4959400;28;20045;-59
2021/09/09 12:16:23;;;;;;;8.25;5.47;;;27.80;84.90;;;;;;4959111;28;20110;-59
2021/09/09 12:19:00;;;;;;;10.75;6.28;;;27.70;83.10;;;;;;4960335;28;20034;-54
2021/09/09 12:21:26;;;;;;;11.45;6.22;;;27.70;84.20;;;;;;4966188;28;20030;-57
2021/09/09 12:24:07;;;;;;;17.33;6.70;;;27.90;83.70;;;;;;4968383;28;20413;-58
2021/09/09 12:26:34;;;;;;;16.60;6.30;;;27.90;84.90;;;;;;4969407;28;20430;-60
2021/09/09 12:29:14;;;;;;;15.23;6.68;;;27.90;84.60;;;;;;4962615;28;20687;-58
2021/09/09 12:31:39;;;;;;;9.68;6.03;;;27.70;82.30;;;;;;4962382;28;20043;-59
2021/09/09 12:34:17;;;;;;;16.95;7.47;;;27.80;84.00;;;;;;4962126;28;20027;-57
2021/09/09 12:36:48;;;;;;;7.85;5.60;;;27.80;83.00;;;;;;4965587;28;20045;-58
2021/09/09 12:39:15;;;;;;;11.85;5.88;;;27.80;84.10;;;;;;4970254;28;20492;-59